Time,TemperatureF,DewpointF,PressureIn,WindDirection,WindDirectionDegrees,WindSpeedMPH,WindSpeedGustMPH,Humidity,HourlyPrecipIn,Conditions,Clouds,dailyrainin,SoftwareType,DateUTC
2013-09-05 00:01:00,56.1,55.8,30.12,WNW,284,0.0,0.0,99,0.00,,,0.00,Wunderground v.1.15,2013-09-05 04:01:00,
2013-09-05 00:02:00,56.1,55.8,30.12,WNW,283,0.0,0.0,99,0.00,,,0.00,Wunderground v.1.15,2013-09-05 04:02:00,
2013-09-05 00:04:00,56.1,55.8,30.12,WNW,283,0.0,0.0,99,0.00,,,0.00,Wunderground v.1.15,2013-09-05 04:04:00,
2013-09-05 00:06:00,56.0,55.7,30.12,WNW,283,0.0,0.0,99,0.00,,,0.00,Wunderground v.1.15,2013-09-05 04:06:00,
2013-09-05 00:08:00,55.9,55.6,30.12,WNW,284,0.0,0.0,99,0.00,,,0.00,Wunderground v.1.15,2013-09-05 04:08:00,
2013-09-05 00:14:00,55.8,55.5,30.11,WNW,284,0.0,0.0,99,0.00,,,0.00,Wunderground v.1.15,2013-09-05 04:14:00,
2013-09-05 00:19:00,55.8,55.5,30.12,WNW,284,0.0,0.0,99,0.00,,,0.00,Wunderground v.1.15,2013-09-05 04:19:00,
2013-09-05 00:21:00,55.9,55.9,30.12,WNW,283,0.0,0.0,100,0.00,,,0.00,Wunderground v.1.15,2013-09-05 04:21:00,
2013-09-05 00:27:00,55.8,55.5,30.12,WNW,284,0.0,0.0,99,0.00,,,0.00,Wunderground v.1.15,2013-09-05 04:27:00,
2013-09-05 00:32:00,55.7,55.4,30.12,WNW,283,0.0,0.0,99,0.00,,,0.00,Wunderground v.1.15,2013-09-05 04:32:00,
2013-09-05 00:38:00,55.6,55.3,30.12,WNW,284,0.0,0.0,99,0.00,,,0.00,Wunderground v.1.15,2013-09-05 04:38:00,
2013-09-05 00:44:00,55.6,55.6,30.12,WNW,284,0.0,0.0,100,0.00,,,0.00,Wunderground v.1.15,2013-09-05 04:44:00,
2013-09-05 00:49:00,55.3,55.0,30.12,WNW,283,0.0,0.0,99,0.00,,,0.00,Wunderground v.1.15,2013-09-05 04:49:00,
2013-09-05 00:55:00,55.3,55.0,30.12,WNW,295,1.0,1.0,99,0.00,,,0.00,Wunderground v.1.15,2013-09-05 04:55:00,
2013-09-05 01:00:00,55.4,55.4,30.12,NNE,23,0.0,0.0,100,0.00,,,0.00,Wunderground v.1.15,2013-09-05 05:00:00,
2013-09-05 01:06:00,55.6,55.6,30.13,NNE,23,0.0,0.0,100,0.00,,,0.00,Wunderground v.1.15,2013-09-05 05:06:00,
2013-09-05 01:12:00,55.9,55.9,30.13,North,352,0.0,0.0,100,0.00,,,0.00,Wunderground v.1.15,2013-09-05 05:12:00,
2013-09-05 01:17:00,56.1,56.1,30.12,NW,324,0.0,0.0,100,0.00,,,0.00,Wunderground v.1.15,2013-09-05 05:17:00,
2013-09-05 01:23:00,55.8,55.8,30.12,NW,325,0.0,0.0,100,0.00,,,0.00,Wunderground v.1.15,2013-09-05 05:23:00,
2013-09-05 01:29:00,55.7,55.7,30.12,NW,324,0.0,0.0,100,0.00,,,0.00,Wunderground v.1.15,2013-09-05 05:29:00,
2013-09-05 01:34:00,55.3,55.0,30.12,WNW,286,0.0,0.0,99,0.00,,,0.00,Wunderground v.1.15,2013-09-05 05:34:00,
2013-09-05 01:40:00,55.1,54.8,30.12,WNW,286,0.0,0.0,99,0.00,,,0.00,Wunderground v.1.15,2013-09-05 05:40:00,
2013-09-05 01:45:00,54.7,54.4,30.12,WNW,287,0.0,0.0,99,0.00,,,0.00,Wunderground v.1.15,2013-09-05 05:45:00,
2013-09-05 01:51:00,54.5,54.2,30.11,WNW,287,0.0,0.0,99,0.00,,,0.00,Wunderground v.1.15,2013-09-05 05:51:00,
2013-09-05 01:56:00,54.4,54.4,30.11,WNW,287,0.0,0.0,100,0.00,,,0.00,Wunderground v.1.15,2013-09-05 05:56:00,
2013-09-05 02:01:00,54.1,53.8,30.11,WNW,286,0.0,0.0,99,0.00,,,0.00,Wunderground v.1.15,2013-09-05 06:01:00,
2013-09-05 02:06:00,53.9,53.9,30.11,WNW,287,0.0,0.0,100,0.00,,,0.00,Wunderground v.1.15,2013-09-05 06:06:00,
2013-09-05 02:11:00,53.6,53.3,30.10,WNW,287,0.0,0.0,99,0.00,,,0.00,Wunderground v.1.15,2013-09-05 06:11:00,
2013-09-05 02:16:00,53.3,53.0,30.10,WNW,287,0.0,0.0,99,0.00,,,0.00,Wunderground v.1.15,2013-09-05 06:16:00,
2013-09-05 02:21:00,52.9,52.6,30.10,WNW,286,0.0,0.0,99,0.00,,,0.00,Wunderground v.1.15,2013-09-05 06:21:00,
2013-09-05 02:26:00,52.7,52.7,30.10,WNW,286,0.0,0.0,100,0.00,,,0.00,Wunderground v.1.15,2013-09-05 06:26:00,
2013-09-05 02:31:00,52.8,52.8,30.10,WNW,287,0.0,0.0,100,0.00,,,0.00,Wunderground v.1.15,2013-09-05 06:31:00,
2013-09-05 02:36:00,53.2,53.2,30.11,WNW,286,0.0,0.0,100,0.00,,,0.00,Wunderground v.1.15,2013-09-05 06:36:00,
2013-09-05 02:41:00,53.3,53.3,30.10,WNW,286,0.0,0.0,100,0.00,,,0.00,Wunderground v.1.15,2013-09-05 06:41:00,
2013-09-05 02:46:00,53.3,53.3,30.10,WNW,286,0.0,0.0,100,0.00,,,0.00,Wunderground v.1.15,2013-09-05 06:46:00,
2013-09-05 02:51:00,53.2,53.2,30.10,WNW,287,0.0,0.0,100,0.00,,,0.00,Wunderground v.1.15,2013-09-05 06:51:00,
2013-09-05 02:56:00,52.8,52.8,30.10,WNW,287,0.0,0.0,100,0.00,,,0.00,Wunderground v.1.15,2013-09-05 06:56:00,
2013-09-05 03:01:00,52.6,52.6,30.10,WNW,286,0.0,0.0,100,0.00,,,0.00,Wunderground v.1.15,2013-09-05 07:01:00,
2013-09-05 03:06:00,52.4,52.4,30.10,WNW,286,0.0,0.0,100,0.00,,,0.00,Wunderground v.1.15,2013-09-05 07:06:00,
2013-09-05 03:11:00,52.4,52.4,30.10,WNW,287,0.0,0.0,100,0.00,,,0.00,Wunderground v.1.15,2013-09-05 07:11:00,
2013-09-05 03:16:00,52.1,52.1,30.10,WNW,286,0.0,0.0,100,0.00,,,0.00,Wunderground v.1.15,2013-09-05 07:16:00,
2013-09-05 03:21:00,52.3,52.3,30.11,WNW,286,0.0,0.0,100,0.00,,,0.00,Wunderground v.1.15,2013-09-05 07:21:00,
2013-09-05 03:26:00,52.3,52.3,30.11,WNW,286,0.0,0.0,100,0.00,,,0.00,Wunderground v.1.15,2013-09-05 07:26:00,
2013-09-05 03:31:00,52.4,52.4,30.11,WNW,286,0.0,0.0,100,0.00,,,0.00,Wunderground v.1.15,2013-09-05 07:31:00,
2013-09-05 03:36:00,52.2,52.2,30.11,WNW,286,0.0,0.0,100,0.00,,,0.00,Wunderground v.1.15,2013-09-05 07:36:00,
2013-09-05 03:41:00,52.1,52.1,30.11,WNW,286,0.0,0.0,100,0.00,,,0.00,Wunderground v.1.15,2013-09-05 07:41:00,
2013-09-05 03:46:00,52.7,52.7,30.11,WNW,287,0.0,1.0,100,0.00,,,0.00,Wunderground v.1.15,2013-09-05 07:46:00,
2013-09-05 03:51:00,53.2,53.2,30.11,WNW,286,0.0,0.0,100,0.00,,,0.00,Wunderground v.1.15,2013-09-05 07:51:00,
2013-09-05 03:56:00,52.8,52.8,30.11,WNW,286,0.0,0.0,100,0.00,,,0.00,Wunderground v.1.15,2013-09-05 07:56:00,
2013-09-05 04:01:00,53.0,53.0,30.11,WNW,286,0.0,0.0,100,0.00,,,0.00,Wunderground v.1.15,2013-09-05 08:01:00,
2013-09-05 04:06:00,53.1,53.1,30.11,WNW,287,0.0,0.0,100,0.00,,,0.00,Wunderground v.1.15,2013-09-05 08:06:00,
2013-09-05 04:11:00,53.2,53.2,30.11,WNW,286,0.0,0.0,100,0.00,,,0.00,Wunderground v.1.15,2013-09-05 08:11:00,
2013-09-05 04:16:00,52.8,52.8,30.11,WNW,287,0.0,0.0,100,0.00,,,0.00,Wunderground v.1.15,2013-09-05 08:16:00,
2013-09-05 04:21:00,52.9,52.9,30.11,West,272,0.0,0.0,100,0.00,,,0.00,Wunderground v.1.15,2013-09-05 08:21:00,
2013-09-05 04:26:00,53.6,53.6,30.11,West,273,0.0,0.0,100,0.00,,,0.00,Wunderground v.1.15,2013-09-05 08:26:00,
2013-09-05 04:31:00,53.8,53.8,30.11,West,266,0.0,0.0,100,0.00,,,0.00,Wunderground v.1.15,2013-09-05 08:31:00,
2013-09-05 04:36:00,53.9,53.9,30.11,West,266,0.0,0.0,100,0.00,,,0.00,Wunderground v.1.15,2013-09-05 08:36:00,
2013-09-05 04:41:00,53.3,53.3,30.11,West,266,0.0,0.0,100,0.00,,,0.00,Wunderground v.1.15,2013-09-05 08:41:00,
2013-09-05 04:46:00,53.0,53.0,30.11,SW,226,0.0,0.0,100,0.00,,,0.00,Wunderground v.1.15,2013-09-05 08:46:00,
2013-09-05 04:51:00,52.9,52.9,30.11,SW,226,0.0,0.0,100,0.00,,,0.00,Wunderground v.1.15,2013-09-05 08:51:00,
2013-09-05 04:56:00,53.2,53.2,30.11,WSW,242,0.0,0.0,100,0.00,,,0.00,Wunderground v.1.15,2013-09-05 08:56:00,
2013-09-05 05:01:00,53.3,53.3,30.11,WSW,242,0.0,0.0,100,0.00,,,0.00,Wunderground v.1.15,2013-09-05 09:01:00,
2013-09-05 05:06:00,53.9,53.9,30.11,North,353,0.0,0.0,100,0.00,,,0.00,Wunderground v.1.15,2013-09-05 09:06:00,
2013-09-05 05:11:00,54.5,54.5,30.11,West,263,0.0,0.0,100,0.00,,,0.00,Wunderground v.1.15,2013-09-05 09:11:00,
2013-09-05 05:16:00,54.5,54.5,30.11,SW,221,0.0,2.0,100,0.00,,,0.00,Wunderground v.1.15,2013-09-05 09:16:00,
2013-09-05 05:21:00,54.5,54.5,30.11,SW,226,0.0,0.0,100,0.00,,,0.00,Wunderground v.1.15,2013-09-05 09:21:00,
2013-09-05 05:26:00,54.4,54.4,30.11,SW,233,0.0,0.0,100,0.00,,,0.00,Wunderground v.1.15,2013-09-05 09:26:00,
2013-09-05 05:31:00,54.3,54.3,30.11,SW,226,0.0,0.0,100,0.00,,,0.00,Wunderground v.1.15,2013-09-05 09:31:00,
2013-09-05 05:36:00,54.1,54.1,30.11,SSW,204,0.0,1.0,100,0.00,,,0.00,Wunderground v.1.15,2013-09-05 09:36:00,
2013-09-05 05:41:00,53.7,53.7,30.11,SSW,204,0.0,0.0,100,0.00,,,0.00,Wunderground v.1.15,2013-09-05 09:41:00,
2013-09-05 05:46:00,53.4,53.4,30.11,SSW,204,0.0,0.0,100,0.00,,,0.00,Wunderground v.1.15,2013-09-05 09:46:00,
2013-09-05 05:51:00,52.8,52.8,30.12,SSW,204,0.0,0.0,100,0.00,,,0.00,Wunderground v.1.15,2013-09-05 09:51:00,
2013-09-05 05:56:00,52.7,52.7,30.12,SSW,204,0.0,0.0,100,0.00,,,0.00,Wunderground v.1.15,2013-09-05 09:56:00,
2013-09-05 06:01:00,52.9,52.9,30.12,SSW,204,0.0,0.0,100,0.00,,,0.00,Wunderground v.1.15,2013-09-05 10:01:00,
2013-09-05 06:06:00,53.0,53.0,30.12,SSW,204,0.0,0.0,100,0.00,,,0.00,Wunderground v.1.15,2013-09-05 10:06:00,
2013-09-05 06:11:00,53.1,53.1,30.12,SSW,205,0.0,0.0,100,0.00,,,0.01,Wunderground v.1.15,2013-09-05 10:11:00,
2013-09-05 06:16:00,52.9,52.9,30.12,SSW,204,0.0,0.0,100,0.00,,,0.01,Wunderground v.1.15,2013-09-05 10:16:00,
2013-09-05 06:21:00,52.7,52.7,30.12,SSW,204,0.0,0.0,100,0.00,,,0.01,Wunderground v.1.15,2013-09-05 10:21:00,
2013-09-05 06:26:00,52.7,52.7,30.13,SSW,212,0.0,1.0,100,0.00,,,0.01,Wunderground v.1.15,2013-09-05 10:26:00,
2013-09-05 06:31:00,52.5,52.5,30.12,SSW,212,0.0,0.0,100,0.00,,,0.01,Wunderground v.1.15,2013-09-05 10:31:00,
2013-09-05 06:36:00,52.5,52.5,30.12,SSW,211,0.0,0.0,100,0.00,,,0.01,Wunderground v.1.15,2013-09-05 10:36:00,
2013-09-05 06:41:00,52.7,52.7,30.12,SSW,211,0.0,0.0,100,0.00,,,0.01,Wunderground v.1.15,2013-09-05 10:41:00,
2013-09-05 06:46:00,52.9,52.9,30.12,WSW,245,0.0,1.0,100,0.00,,,0.01,Wunderground v.1.15,2013-09-05 10:46:00,
2013-09-05 06:51:00,53.4,53.4,30.12,WNW,302,0.0,1.0,100,0.00,,,0.01,Wunderground v.1.15,2013-09-05 10:51:00,
2013-09-05 06:56:00,53.3,53.3,30.12,WSW,245,0.0,2.0,100,0.00,,,0.01,Wunderground v.1.15,2013-09-05 10:56:00,
2013-09-05 07:01:00,52.6,52.6,30.12,SW,229,0.0,1.0,100,0.00,,,0.01,Wunderground v.1.15,2013-09-05 11:01:00,
2013-09-05 07:06:00,52.3,52.3,30.13,SW,229,0.0,1.0,100,0.00,,,0.01,Wunderground v.1.15,2013-09-05 11:06:00,
2013-09-05 07:11:00,52.1,52.1,30.13,WSW,243,0.0,1.0,100,0.00,,,0.01,Wunderground v.1.15,2013-09-05 11:11:00,
2013-09-05 07:16:00,52.0,52.0,30.13,WSW,243,0.0,1.0,100,0.00,,,0.01,Wunderground v.1.15,2013-09-05 11:16:00,
2013-09-05 07:21:00,51.9,51.9,30.13,WSW,243,0.0,0.0,100,0.00,,,0.01,Wunderground v.1.15,2013-09-05 11:21:00,
2013-09-05 07:26:00,51.4,51.4,30.13,WSW,243,0.0,0.0,100,0.00,,,0.01,Wunderground v.1.15,2013-09-05 11:26:00,
2013-09-05 07:31:00,51.2,51.2,30.13,WSW,243,0.0,1.0,100,0.00,,,0.01,Wunderground v.1.15,2013-09-05 11:31:00,
2013-09-05 07:36:00,51.4,51.4,30.13,WSW,240,0.0,1.0,100,0.00,,,0.01,Wunderground v.1.15,2013-09-05 11:36:00,
2013-09-05 07:41:00,51.6,51.6,30.13,WSW,240,0.0,0.0,100,0.00,,,0.01,Wunderground v.1.15,2013-09-05 11:41:00,
2013-09-05 07:46:00,52.1,52.1,30.13,WSW,240,0.0,0.0,100,0.00,,,0.01,Wunderground v.1.15,2013-09-05 11:46:00,
2013-09-05 07:51:00,52.5,52.5,30.13,WSW,240,0.0,0.0,100,0.00,,,0.01,Wunderground v.1.15,2013-09-05 11:51:00,
2013-09-05 07:56:00,52.9,52.9,30.13,ESE,122,0.0,1.0,100,0.00,,,0.01,Wunderground v.1.15,2013-09-05 11:56:00,
2013-09-05 08:01:00,53.4,53.4,30.13,ESE,122,0.0,0.0,100,0.00,,,0.01,Wunderground v.1.15,2013-09-05 12:01:00,
2013-09-05 08:06:00,54.0,54.0,30.14,ESE,122,0.0,0.0,100,0.00,,,0.01,Wunderground v.1.15,2013-09-05 12:06:00,
2013-09-05 08:11:00,54.9,54.9,30.14,ESE,122,0.0,0.0,100,0.00,,,0.01,Wunderground v.1.15,2013-09-05 12:11:00,
2013-09-05 08:16:00,55.8,55.8,30.14,ESE,122,0.0,0.0,100,0.00,,,0.01,Wunderground v.1.15,2013-09-05 12:16:00,
2013-09-05 08:21:00,56.7,56.7,30.14,ESE,122,0.0,0.0,100,0.00,,,0.01,Wunderground v.1.15,2013-09-05 12:21:00,
2013-09-05 08:26:00,57.4,57.4,30.14,SE,134,0.0,0.0,100,0.00,,,0.01,Wunderground v.1.15,2013-09-05 12:26:00,
2013-09-05 08:31:00,57.9,57.9,30.14,WNW,298,0.0,1.0,100,0.00,,,0.01,Wunderground v.1.15,2013-09-05 12:31:00,
2013-09-05 08:36:00,58.4,58.4,30.14,South,169,1.0,2.0,100,0.00,,,0.01,Wunderground v.1.15,2013-09-05 12:36:00,
2013-09-05 08:41:00,59.1,59.1,30.14,West,277,0.0,1.0,100,0.00,,,0.01,Wunderground v.1.15,2013-09-05 12:41:00,
2013-09-05 08:46:00,59.8,59.8,30.14,West,273,1.0,1.0,100,0.00,,,0.01,Wunderground v.1.15,2013-09-05 12:46:00,
2013-09-05 08:51:00,59.7,59.7,30.14,SSW,203,1.0,2.0,100,0.00,,,0.01,Wunderground v.1.15,2013-09-05 12:51:00,
2013-09-05 08:56:00,59.6,59.3,30.14,WNW,297,1.0,4.0,99,0.00,,,0.01,Wunderground v.1.15,2013-09-05 12:56:00,
2013-09-05 09:01:00,60.0,59.7,30.14,WSW,238,1.0,1.0,99,0.00,,,0.01,Wunderground v.1.15,2013-09-05 13:01:00,
2013-09-05 09:06:00,60.5,59.9,30.14,West,270,0.0,2.0,98,0.00,,,0.01,Wunderground v.1.15,2013-09-05 13:06:00,
2013-09-05 09:11:00,60.7,59.8,30.14,WNW,303,3.0,6.0,97,0.00,,,0.01,Wunderground v.1.15,2013-09-05 13:11:00,
2013-09-05 09:16:00,61.0,59.6,30.14,WNW,302,0.0,6.0,95,0.00,,,0.01,Wunderground v.1.15,2013-09-05 13:16:00,
2013-09-05 09:21:00,61.4,59.7,30.14,NNE,13,2.0,4.0,94,0.00,,,0.01,Wunderground v.1.15,2013-09-05 13:21:00,
2013-09-05 09:26:00,61.9,59.2,30.14,NW,323,1.0,4.0,91,0.00,,,0.01,Wunderground v.1.15,2013-09-05 13:26:00,
2013-09-05 09:31:00,62.5,59.5,30.14,WNW,301,3.0,4.0,90,0.00,,,0.01,Wunderground v.1.15,2013-09-05 13:31:00,
2013-09-05 09:36:00,62.9,59.9,30.14,WNW,292,3.0,4.0,90,0.00,,,0.01,Wunderground v.1.15,2013-09-05 13:36:00,
2013-09-05 09:41:00,63.3,59.7,30.14,NE,54,2.0,3.0,88,0.00,,,0.01,Wunderground v.1.15,2013-09-05 13:41:00,
2013-09-05 09:46:00,63.6,59.7,30.14,WSW,253,1.0,5.0,87,0.00,,,0.01,Wunderground v.1.15,2013-09-05 13:46:00,
2013-09-05 09:51:00,64.1,60.2,30.15,East,86,3.0,3.0,87,0.00,,,0.01,Wunderground v.1.15,2013-09-05 13:51:00,
2013-09-05 09:56:00,64.3,59.7,30.14,East,89,1.0,4.0,85,0.00,,,0.01,Wunderground v.1.15,2013-09-05 13:56:00,
2013-09-05 10:01:00,64.3,59.4,30.15,NW,322,3.0,5.0,84,0.00,,,0.01,Wunderground v.1.15,2013-09-05 14:01:00,
2013-09-05 10:06:00,64.2,59.3,30.15,ESE,120,2.0,5.0,84,0.00,,,0.01,Wunderground v.1.15,2013-09-05 14:06:00,
2013-09-05 10:11:00,64.5,59.2,30.15,WSW,250,2.0,6.0,83,0.00,,,0.01,Wunderground v.1.15,2013-09-05 14:11:00,
2013-09-05 10:16:00,64.7,60.1,30.15,NNW,346,1.0,6.0,85,0.00,,,0.01,Wunderground v.1.15,2013-09-05 14:16:00,
2013-09-05 10:21:00,65.0,59.7,30.14,WSW,253,3.0,6.0,83,0.00,,,0.01,Wunderground v.1.15,2013-09-05 14:21:00,
2013-09-05 10:26:00,65.0,60.0,30.14,NNE,26,3.0,6.0,84,0.00,,,0.01,Wunderground v.1.15,2013-09-05 14:26:00,
2013-09-05 10:31:00,65.2,59.9,30.15,WSW,257,1.0,4.0,83,0.00,,,0.01,Wunderground v.1.15,2013-09-05 14:31:00,
2013-09-05 10:36:00,65.4,60.4,30.15,North,8,2.0,8.0,84,0.00,,,0.01,Wunderground v.1.15,2013-09-05 14:36:00,
2013-09-05 10:41:00,65.8,60.8,30.14,ESE,114,1.0,4.0,84,0.00,,,0.01,Wunderground v.1.15,2013-09-05 14:41:00,
2013-09-05 10:46:00,66.0,60.7,30.14,NNW,337,4.0,6.0,83,0.00,,,0.01,Wunderground v.1.15,2013-09-05 14:46:00,
2013-09-05 10:51:00,66.4,61.1,30.14,West,269,1.0,4.0,83,0.00,,,0.01,Wunderground v.1.15,2013-09-05 14:51:00,
2013-09-05 10:56:00,66.9,61.6,30.15,NW,326,1.0,7.0,83,0.00,,,0.01,Wunderground v.1.15,2013-09-05 14:56:00,
2013-09-05 11:01:00,67.6,61.9,30.15,WNW,293,4.0,4.0,82,0.00,,,0.01,Wunderground v.1.15,2013-09-05 15:01:00,
2013-09-05 11:06:00,67.6,61.2,30.15,West,277,2.0,8.0,80,0.00,,,0.01,Wunderground v.1.15,2013-09-05 15:06:00,
2013-09-05 11:11:00,67.4,61.4,30.14,NNW,344,2.0,4.0,81,0.00,,,0.01,Wunderground v.1.15,2013-09-05 15:11:00,
2013-09-05 11:16:00,67.5,61.5,30.15,WNW,288,1.0,5.0,81,0.00,,,0.01,Wunderground v.1.15,2013-09-05 15:16:00,
2013-09-05 11:21:00,68.1,61.7,30.15,NNW,338,2.0,3.0,80,0.00,,,0.01,Wunderground v.1.15,2013-09-05 15:21:00,
2013-09-05 11:26:00,68.8,62.0,30.15,NNW,343,4.0,11.0,79,0.00,,,0.01,Wunderground v.1.15,2013-09-05 15:26:00,
2013-09-05 11:31:00,69.2,62.0,30.15,NNE,20,4.0,10.0,78,0.00,,,0.01,Wunderground v.1.15,2013-09-05 15:31:00,
2013-09-05 11:36:00,69.2,61.7,30.14,WNW,284,1.0,10.0,77,0.00,,,0.01,Wunderground v.1.15,2013-09-05 15:36:00,
2013-09-05 11:41:00,69.5,62.0,30.14,SSW,200,6.0,6.0,77,0.00,,,0.01,Wunderground v.1.15,2013-09-05 15:41:00,
2013-09-05 11:46:00,69.2,60.9,30.14,WSW,243,2.0,6.0,75,0.00,,,0.01,Wunderground v.1.15,2013-09-05 15:46:00,
2013-09-05 11:51:00,69.2,61.3,30.14,NNW,343,0.0,4.0,76,0.00,,,0.01,Wunderground v.1.15,2013-09-05 15:51:00,
2013-09-05 11:56:00,69.9,61.6,30.15,NW,319,2.0,5.0,75,0.00,,,0.01,Wunderground v.1.15,2013-09-05 15:56:00,
2013-09-05 12:01:00,70.0,60.9,30.15,NW,315,3.0,12.0,73,0.00,,,0.01,Wunderground v.1.15,2013-09-05 16:01:00,
2013-09-05 12:06:00,69.7,60.7,30.14,West,274,1.0,12.0,73,0.00,,,0.01,Wunderground v.1.15,2013-09-05 16:06:00,
2013-09-05 12:11:00,69.6,60.6,30.14,North,359,1.0,5.0,73,0.00,,,0.01,Wunderground v.1.15,2013-09-05 16:11:00,
2013-09-05 12:16:00,70.3,62.0,30.14,NNE,18,4.0,5.0,75,0.00,,,0.01,Wunderground v.1.15,2013-09-05 16:16:00,
2013-09-05 12:21:00,70.7,62.0,30.14,NNE,15,3.0,3.0,74,0.00,,,0.01,Wunderground v.1.15,2013-09-05 16:21:00,
2013-09-05 12:26:00,70.7,62.0,30.14,North,3,2.0,10.0,74,0.00,,,0.01,Wunderground v.1.15,2013-09-05 16:26:00,
2013-09-05 12:31:00,70.8,61.3,30.14,NE,44,10.0,10.0,72,0.00,,,0.01,Wunderground v.1.15,2013-09-05 16:31:00,
2013-09-05 12:36:00,71.0,61.5,30.13,NE,40,2.0,10.0,72,0.00,,,0.01,Wunderground v.1.15,2013-09-05 16:36:00,
2013-09-05 12:41:00,71.5,62.0,30.13,NNE,32,1.0,3.0,72,0.00,,,0.01,Wunderground v.1.15,2013-09-05 16:41:00,
2013-09-05 12:46:00,71.6,61.3,30.13,NNW,332,3.0,8.0,70,0.00,,,0.01,Wunderground v.1.15,2013-09-05 16:46:00,
2013-09-05 12:51:00,71.4,61.9,30.13,North,354,4.0,5.0,72,0.00,,,0.01,Wunderground v.1.15,2013-09-05 16:51:00,
2013-09-05 12:56:00,71.4,60.7,30.13,North,3,7.0,10.0,69,0.00,,,0.01,Wunderground v.1.15,2013-09-05 16:56:00,
2013-09-05 13:01:00,71.1,60.0,30.13,North,352,1.0,5.0,68,0.00,,,0.01,Wunderground v.1.15,2013-09-05 17:01:00,
2013-09-05 13:06:00,71.2,60.9,30.13,North,352,1.0,9.0,70,0.00,,,0.01,Wunderground v.1.15,2013-09-05 17:06:00,
2013-09-05 13:11:00,71.6,60.1,30.13,NW,316,5.0,6.0,67,0.00,,,0.01,Wunderground v.1.15,2013-09-05 17:11:00,
2013-09-05 13:16:00,71.4,59.9,30.13,NNE,27,2.0,8.0,67,0.00,,,0.01,Wunderground v.1.15,2013-09-05 17:16:00,
2013-09-05 13:21:00,71.9,61.2,30.13,North,11,4.0,5.0,69,0.00,,,0.01,Wunderground v.1.15,2013-09-05 17:21:00,
2013-09-05 13:26:00,72.0,61.3,30.13,ENE,68,3.0,9.0,69,0.00,,,0.01,Wunderground v.1.15,2013-09-05 17:26:00,
2013-09-05 13:31:00,72.3,59.9,30.13,NNE,16,3.0,5.0,65,0.00,,,0.01,Wunderground v.1.15,2013-09-05 17:31:00,
2013-09-05 13:36:00,72.5,58.7,30.13,WNW,301,2.0,5.0,62,0.00,,,0.01,Wunderground v.1.15,2013-09-05 17:36:00,
2013-09-05 13:41:00,72.7,60.3,30.12,North,6,8.0,8.0,65,0.00,,,0.01,Wunderground v.1.15,2013-09-05 17:41:00,
2013-09-05 13:46:00,72.7,58.9,30.13,NNW,334,5.0,10.0,62,0.00,,,0.01,Wunderground v.1.15,2013-09-05 17:46:00,
2013-09-05 13:51:00,72.8,59.9,30.12,NW,314,4.0,7.0,64,0.00,,,0.01,Wunderground v.1.15,2013-09-05 17:51:00,
2013-09-05 13:56:00,72.5,58.3,30.12,NE,48,2.0,11.0,61,0.00,,,0.01,Wunderground v.1.15,2013-09-05 17:56:00,
2013-09-05 14:01:00,72.6,58.8,30.12,West,271,2.0,6.0,62,0.00,,,0.01,Wunderground v.1.15,2013-09-05 18:01:00,
2013-09-05 14:06:00,72.9,58.7,30.12,NNW,332,4.0,11.0,61,0.00,,,0.01,Wunderground v.1.15,2013-09-05 18:06:00,
2013-09-05 14:11:00,73.4,59.1,30.12,South,186,2.0,5.0,61,0.00,,,0.01,Wunderground v.1.15,2013-09-05 18:11:00,
2013-09-05 14:16:00,73.2,58.5,30.12,West,278,3.0,9.0,60,0.00,,,0.01,Wunderground v.1.15,2013-09-05 18:16:00,
2013-09-05 14:21:00,73.3,59.0,30.12,NE,38,5.0,5.0,61,0.00,,,0.01,Wunderground v.1.15,2013-09-05 18:21:00,
2013-09-05 14:26:00,73.7,59.4,30.12,WNW,287,4.0,5.0,61,0.00,,,0.01,Wunderground v.1.15,2013-09-05 18:26:00,
2013-09-05 14:31:00,73.5,57.3,30.12,West,259,8.0,10.0,57,0.00,,,0.01,Wunderground v.1.15,2013-09-05 18:31:00,
2013-09-05 14:36:00,73.3,57.6,30.12,NE,39,1.0,10.0,58,0.00,,,0.01,Wunderground v.1.15,2013-09-05 18:36:00,
2013-09-05 14:41:00,73.6,57.9,30.12,WSW,238,6.0,6.0,58,0.00,,,0.01,Wunderground v.1.15,2013-09-05 18:41:00,
2013-09-05 14:46:00,73.7,58.5,30.12,North,10,3.0,8.0,59,0.00,,,0.01,Wunderground v.1.15,2013-09-05 18:46:00,
2013-09-05 14:51:00,73.8,59.0,30.12,NNE,32,4.0,4.0,60,0.00,,,0.01,Wunderground v.1.15,2013-09-05 18:51:00,
2013-09-05 14:56:00,74.1,59.8,30.11,ENE,58,1.0,8.0,61,0.00,,,0.01,Wunderground v.1.15,2013-09-05 18:56:00,
2013-09-05 17:38:00,72.0,59.6,30.10,West,278,0.0,2.0,65,0.00,,,0.01,Wunderground v.1.15,2013-09-05 21:38:00,
2013-09-05 17:43:00,71.4,59.0,30.10,SW,215,1.0,5.0,65,0.00,,,0.01,Wunderground v.1.15,2013-09-05 21:43:00,
2013-09-05 17:48:00,71.0,59.9,30.10,West,279,0.0,1.0,68,0.00,,,0.01,Wunderground v.1.15,2013-09-05 21:48:00,
2013-09-05 17:53:00,71.0,59.5,30.10,NE,36,1.0,3.0,67,0.00,,,0.01,Wunderground v.1.15,2013-09-05 21:53:00,
2013-09-05 17:58:00,70.4,59.7,30.10,North,9,0.0,1.0,69,0.00,,,0.01,Wunderground v.1.15,2013-09-05 21:58:00,
2013-09-05 18:03:00,69.9,58.9,30.10,NNW,340,0.0,4.0,68,0.00,,,0.01,Wunderground v.1.15,2013-09-05 22:03:00,
2013-09-05 18:08:00,69.7,59.5,30.10,NNE,15,1.0,4.0,70,0.00,,,0.01,Wunderground v.1.15,2013-09-05 22:08:00,
2013-09-05 18:13:00,69.8,60.0,30.10,WNW,285,0.0,2.0,71,0.00,,,0.01,Wunderground v.1.15,2013-09-05 22:13:00,
2013-09-05 18:18:00,70.1,59.5,30.10,North,11,3.0,7.0,69,0.00,,,0.01,Wunderground v.1.15,2013-09-05 22:18:00,
2013-09-05 18:23:00,70.4,60.1,30.10,NNW,347,1.0,2.0,70,0.00,,,0.01,Wunderground v.1.15,2013-09-05 22:23:00,
2013-09-05 18:28:00,70.6,60.3,30.10,NNW,343,0.0,3.0,70,0.00,,,0.01,Wunderground v.1.15,2013-09-05 22:28:00,
2013-09-05 18:33:00,70.9,60.6,30.10,NNE,26,0.0,2.0,70,0.00,,,0.01,Wunderground v.1.15,2013-09-05 22:33:00,
2013-09-05 18:38:00,70.7,60.4,30.10,WNW,302,1.0,3.0,70,0.00,,,0.01,Wunderground v.1.15,2013-09-05 22:38:00,
2013-09-05 18:43:00,70.2,60.4,30.10,NW,304,0.0,2.0,71,0.00,,,0.01,Wunderground v.1.15,2013-09-05 22:43:00,
2013-09-05 18:48:00,70.4,60.9,30.09,WSW,253,0.0,2.0,72,0.00,,,0.01,Wunderground v.1.15,2013-09-05 22:48:00,
2013-09-05 18:53:00,70.6,60.7,30.09,WSW,238,0.0,1.0,71,0.00,,,0.01,Wunderground v.1.15,2013-09-05 22:53:00,
2013-09-05 18:58:00,70.5,60.6,30.09,SW,215,0.0,3.0,71,0.00,,,0.01,Wunderground v.1.15,2013-09-05 22:58:00,
2013-09-05 19:03:00,69.9,60.1,30.09,NNE,13,0.0,2.0,71,0.00,,,0.01,Wunderground v.1.15,2013-09-05 23:03:00,
2013-09-05 19:08:00,69.0,60.4,30.09,NNE,13,0.0,2.0,74,0.00,,,0.01,Wunderground v.1.15,2013-09-05 23:08:00,
2013-09-05 19:13:00,68.3,60.1,30.09,West,278,0.0,0.0,75,0.00,,,0.01,Wunderground v.1.15,2013-09-05 23:13:00,
2013-09-05 19:18:00,67.7,59.9,30.09,ENE,75,0.0,2.0,76,0.00,,,0.01,Wunderground v.1.15,2013-09-05 23:18:00,
2013-09-05 19:23:00,67.2,59.7,30.09,ENE,75,0.0,0.0,77,0.00,,,0.01,Wunderground v.1.15,2013-09-05 23:23:00,
2013-09-05 19:28:00,66.7,59.6,30.09,ENE,75,0.0,0.0,78,0.00,,,0.01,Wunderground v.1.15,2013-09-05 23:28:00,
2013-09-05 19:33:00,66.2,59.8,30.09,ENE,75,0.0,0.0,80,0.00,,,0.01,Wunderground v.1.15,2013-09-05 23:33:00,
2013-09-05 19:38:00,65.6,59.6,30.09,ENE,72,0.0,0.0,81,0.00,,,0.01,Wunderground v.1.15,2013-09-05 23:38:00,
2013-09-05 19:43:00,65.1,59.5,30.09,NNW,338,1.0,1.0,82,0.00,,,0.01,Wunderground v.1.15,2013-09-05 23:43:00,
2013-09-05 19:48:00,64.9,59.3,30.09,WSW,253,0.0,2.0,82,0.00,,,0.01,Wunderground v.1.15,2013-09-05 23:48:00,
2013-09-05 19:53:00,64.6,59.0,30.10,WSW,253,0.0,0.0,82,0.00,,,0.01,Wunderground v.1.15,2013-09-05 23:53:00,
2013-09-05 19:58:00,64.2,58.9,30.10,WSW,253,0.0,0.0,83,0.00,,,0.01,Wunderground v.1.15,2013-09-05 23:58:00,
2013-09-05 20:03:00,63.8,58.9,30.10,West,259,0.0,0.0,84,0.00,,,0.01,Wunderground v.1.15,2013-09-06 00:03:00,
2013-09-05 20:08:00,63.5,58.9,30.10,NNE,20,0.0,1.0,85,0.00,,,0.01,Wunderground v.1.15,2013-09-06 00:08:00,
2013-09-05 20:13:00,63.2,58.9,30.10,NNE,20,0.0,0.0,86,0.00,,,0.01,Wunderground v.1.15,2013-09-06 00:13:00,
2013-09-05 20:18:00,62.9,59.0,30.10,NNE,20,0.0,0.0,87,0.00,,,0.01,Wunderground v.1.15,2013-09-06 00:18:00,
2013-09-05 20:23:00,62.7,58.8,30.10,NNE,20,0.0,0.0,87,0.00,,,0.01,Wunderground v.1.15,2013-09-06 00:23:00,
2013-09-05 20:28:00,62.5,58.6,30.10,NNE,20,0.0,0.0,87,0.00,,,0.01,Wunderground v.1.15,2013-09-06 00:28:00,
2013-09-05 20:33:00,62.2,58.3,30.11,NNE,20,0.0,0.0,87,0.00,,,0.01,Wunderground v.1.15,2013-09-06 00:33:00,
2013-09-05 20:38:00,61.9,58.3,30.11,NNE,20,0.0,0.0,88,0.00,,,0.01,Wunderground v.1.15,2013-09-06 00:38:00,
2013-09-05 20:43:00,61.7,58.4,30.11,NNE,20,0.0,0.0,89,0.00,,,0.01,Wunderground v.1.15,2013-09-06 00:43:00,
2013-09-05 20:48:00,61.7,58.7,30.11,NNE,20,0.0,0.0,90,0.00,,,0.01,Wunderground v.1.15,2013-09-06 00:48:00,
2013-09-05 20:53:00,61.8,58.8,30.11,NNE,20,0.0,0.0,90,0.00,,,0.01,Wunderground v.1.15,2013-09-06 00:53:00,
2013-09-05 20:58:00,61.8,58.8,30.11,NNE,20,0.0,0.0,90,0.00,,,0.01,Wunderground v.1.15,2013-09-06 00:58:00,
2013-09-05 21:03:00,61.6,58.6,30.12,NNE,19,0.0,0.0,90,0.00,,,0.01,Wunderground v.1.15,2013-09-06 01:03:00,
2013-09-05 21:08:00,61.5,58.5,30.12,NNE,20,0.0,0.0,90,0.00,,,0.01,Wunderground v.1.15,2013-09-06 01:08:00,
2013-09-05 21:13:00,61.3,58.7,30.12,NNE,20,0.0,0.0,91,0.00,,,0.01,Wunderground v.1.15,2013-09-06 01:13:00,
2013-09-05 21:18:00,61.4,58.7,30.12,NNE,20,0.0,0.0,91,0.00,,,0.01,Wunderground v.1.15,2013-09-06 01:18:00,
2013-09-05 21:23:00,61.4,58.7,30.12,NNE,20,0.0,0.0,91,0.00,,,0.01,Wunderground v.1.15,2013-09-06 01:23:00,
2013-09-05 21:28:00,61.5,59.2,30.12,NNE,20,0.0,1.0,92,0.00,,,0.01,Wunderground v.1.15,2013-09-06 01:28:00,
2013-09-05 21:33:00,61.6,59.3,30.12,NNE,20,0.0,0.0,92,0.00,,,0.01,Wunderground v.1.15,2013-09-06 01:33:00,
2013-09-05 21:38:00,61.6,59.3,30.12,NNE,18,0.0,1.0,92,0.00,,,0.01,Wunderground v.1.15,2013-09-06 01:38:00,
2013-09-05 21:43:00,61.6,59.3,30.12,NNW,334,0.0,1.0,92,0.00,,,0.01,Wunderground v.1.15,2013-09-06 01:43:00,
2013-09-05 21:48:00,61.6,59.3,30.12,NNW,334,0.0,1.0,92,0.00,,,0.01,Wunderground v.1.15,2013-09-06 01:48:00,
2013-09-05 21:53:00,61.6,59.3,30.12,WNW,287,0.0,1.0,92,0.00,,,0.01,Wunderground v.1.15,2013-09-06 01:53:00,
2013-09-05 21:58:00,61.6,59.3,30.12,NW,312,0.0,1.0,92,0.00,,,0.01,Wunderground v.1.15,2013-09-06 01:58:00,
2013-09-05 22:03:00,61.6,59.3,30.13,NW,311,0.0,0.0,92,0.00,,,0.01,Wunderground v.1.15,2013-09-06 02:03:00,
2013-09-05 22:08:00,61.5,59.5,30.13,NW,311,1.0,1.0,93,0.00,,,0.01,Wunderground v.1.15,2013-09-06 02:08:00,
2013-09-05 22:13:00,61.6,59.6,30.13,WNW,300,0.0,0.0,93,0.00,,,0.01,Wunderground v.1.15,2013-09-06 02:13:00,
2013-09-05 22:18:00,61.6,59.6,30.13,WNW,300,0.0,0.0,93,0.00,,,0.01,Wunderground v.1.15,2013-09-06 02:18:00,
2013-09-05 22:23:00,61.5,59.5,30.13,WNW,288,0.0,1.0,93,0.00,,,0.01,Wunderground v.1.15,2013-09-06 02:23:00,
2013-09-05 22:28:00,61.6,59.6,30.13,WNW,288,0.0,1.0,93,0.00,,,0.01,Wunderground v.1.15,2013-09-06 02:28:00,
2013-09-05 22:33:00,61.6,59.6,30.13,WNW,288,0.0,0.0,93,0.00,,,0.01,Wunderground v.1.15,2013-09-06 02:33:00,
2013-09-05 22:38:00,61.4,59.4,30.13,WNW,288,0.0,0.0,93,0.00,,,0.01,Wunderground v.1.15,2013-09-06 02:38:00,
2013-09-05 22:43:00,61.1,59.1,30.14,WNW,288,0.0,0.0,93,0.00,,,0.01,Wunderground v.1.15,2013-09-06 02:43:00,
2013-09-05 22:48:00,60.7,58.7,30.14,WNW,288,0.0,0.0,93,0.00,,,0.01,Wunderground v.1.15,2013-09-06 02:48:00,
2013-09-05 22:53:00,60.3,58.6,30.14,WNW,288,0.0,0.0,94,0.00,,,0.01,Wunderground v.1.15,2013-09-06 02:53:00,
2013-09-05 22:58:00,60.0,58.3,30.14,WNW,288,0.0,0.0,94,0.00,,,0.01,Wunderground v.1.15,2013-09-06 02:58:00,
2013-09-05 23:03:00,59.9,58.5,30.14,WNW,288,0.0,0.0,95,0.00,,,0.01,Wunderground v.1.15,2013-09-06 03:03:00,
2013-09-05 23:08:00,59.7,58.3,30.14,WNW,288,0.0,0.0,95,0.00,,,0.01,Wunderground v.1.15,2013-09-06 03:08:00,
2013-09-05 23:13:00,59.6,58.5,30.14,WNW,288,0.0,0.0,96,0.00,,,0.01,Wunderground v.1.15,2013-09-06 03:13:00,
2013-09-05 23:18:00,59.7,58.6,30.14,WNW,288,0.0,0.0,96,0.00,,,0.01,Wunderground v.1.15,2013-09-06 03:18:00,
2013-09-05 23:23:00,59.8,58.9,30.14,WNW,288,0.0,0.0,97,0.00,,,0.01,Wunderground v.1.15,2013-09-06 03:23:00,
2013-09-05 23:28:00,59.8,58.9,30.14,WNW,288,0.0,0.0,97,0.00,,,0.01,Wunderground v.1.15,2013-09-06 03:28:00,
2013-09-05 23:33:00,59.9,59.0,30.14,WNW,288,0.0,0.0,97,0.00,,,0.01,Wunderground v.1.15,2013-09-06 03:33:00,
2013-09-05 23:38:00,60.0,59.1,30.14,WNW,288,0.0,0.0,97,0.00,,,0.01,Wunderground v.1.15,2013-09-06 03:38:00,
2013-09-05 23:43:00,60.0,59.1,30.14,WNW,288,0.0,0.0,97,0.00,,,0.01,Wunderground v.1.15,2013-09-06 03:43:00,
2013-09-05 23:48:00,60.0,59.1,30.14,WNW,288,0.0,0.0,97,0.00,,,0.01,Wunderground v.1.15,2013-09-06 03:48:00,
2013-09-05 23:53:00,59.8,58.9,30.14,WSW,240,0.0,1.0,97,0.00,,,0.01,Wunderground v.1.15,2013-09-06 03:53:00,
2013-09-05 23:58:00,59.5,58.4,30.14,WSW,240,0.0,1.0,96,0.00,,,0.01,Wunderground v.1.15,2013-09-06 03:58:00,